createdAt,value
2022-10-26T00:01:17.403Z,68.05
2022-10-26T00:03:47.481Z,67.95
2022-10-26T00:06:20.437Z,67.92
2022-10-26T00:08:49.981Z,68.06
2022-10-26T00:11:17.415Z,68.43
2022-10-26T00:13:44.532Z,68.58
2022-10-26T00:16:15.112Z,69.60
2022-10-26T00:18:47.456Z,70.71
2022-10-26T00:21:14.052Z,71.49
2022-10-26T00:23:43.521Z,71.39
2022-10-26T00:26:12.824Z,70.84
2022-10-26T00:28:41.899Z,70.67
2022-10-26T00:31:15.623Z,70.60
2022-10-26T00:33:44.799Z,70.34
2022-10-26T00:36:13.887Z,70.39
2022-10-26T00:38:45.969Z,70.21
2022-10-26T00:41:19.998Z,70.33
2022-10-26T00:43:47.203Z,69.74
2022-10-26T00:46:21.123Z,69.74
2022-10-26T00:49:05.237Z,69.56
2022-10-26T00:51:34.629Z,69.61
2022-10-26T00:54:02.156Z,70.01
2022-10-26T00:56:31.673Z,69.73
2022-10-26T00:59:02.246Z,69.65
2022-10-26T01:01:29.947Z,69.80
2022-10-26T01:04:01.387Z,69.90
2022-10-26T01:06:29.654Z,70.39
2022-10-26T01:08:56.713Z,70.69
2022-10-26T01:11:23.663Z,70.84
2022-10-26T01:13:54.627Z,71.01
2022-10-26T01:16:43.097Z,71.23
2022-10-26T01:19:30.849Z,71.77
2022-10-26T01:22:14.317Z,72.44
2022-10-26T01:25:13.230Z,72.99
2022-10-26T01:27:55.285Z,73.78
2022-10-26T01:30:28.194Z,73.53
2022-10-26T01:33:22.536Z,72.96
2022-10-26T01:36:15.524Z,72.41
2022-10-26T01:38:48.281Z,72.26
2022-10-26T01:41:49.250Z,72.17
2022-10-26T01:44:23.577Z,72.09
2022-10-26T01:46:52.404Z,71.83
2022-10-26T01:49:24.837Z,71.60
2022-10-26T01:51:51.527Z,71.60
2022-10-26T01:54:18.209Z,71.59
2022-10-26T01:56:52.281Z,71.61
2022-10-26T01:59:59.658Z,72.89
2022-10-26T02:02:29.360Z,72.97
2022-10-26T02:05:21.049Z,72.76
2022-10-26T02:08:05.386Z,72.32
2022-10-26T02:10:59.164Z,72.09
2022-10-26T02:13:52.329Z,72.20
2022-10-26T02:16:28.362Z,71.35
2022-10-26T02:19:06.429Z,71.39
2022-10-26T02:21:45.985Z,71.38
2022-10-26T02:24:16.329Z,71.35
2022-10-26T02:26:46.242Z,71.00
2022-10-26T02:29:20.091Z,71.24
2022-10-26T02:31:48.308Z,70.96
2022-10-26T02:34:19.101Z,70.77
2022-10-26T02:36:47.800Z,70.93
2022-10-26T02:39:17.806Z,71.73
2022-10-26T02:41:45.095Z,72.30
2022-10-26T02:44:22.920Z,72.23
2022-10-26T02:46:50.337Z,72.03
2022-10-26T02:49:19.718Z,71.69
2022-10-26T02:51:50.786Z,71.41
2022-10-26T02:54:42.064Z,71.56
2022-10-26T02:57:23.804Z,71.63
2022-10-26T02:59:51.170Z,71.51
2022-10-26T03:02:19.593Z,71.24
2022-10-26T03:04:46.466Z,71.19
2022-10-26T03:07:13.204Z,71.32
2022-10-26T03:09:42.372Z,71.30
2022-10-26T03:12:11.382Z,71.48
2022-10-26T03:14:38.115Z,71.89
2022-10-26T03:17:09.826Z,72.49
2022-10-26T03:19:36.535Z,72.52
2022-10-26T03:22:05.603Z,72.09
2022-10-26T03:24:34.694Z,71.87
2022-10-26T03:27:06.708Z,71.92
2022-10-26T03:29:36.059Z,72.18
2022-10-26T03:32:04.959Z,72.31
2022-10-26T03:34:31.692Z,72.07
2022-10-26T03:36:58.585Z,71.88
2022-10-26T03:39:25.315Z,71.84
2022-10-26T03:41:55.519Z,71.78
2022-10-26T03:44:22.860Z,71.68
2022-10-26T03:46:49.657Z,71.63
2022-10-26T03:49:16.356Z,71.77
2022-10-26T03:51:42.992Z,71.58
2022-10-26T03:54:11.999Z,71.50
2022-10-26T03:56:38.692Z,71.68
2022-10-26T03:59:07.884Z,72.00
2022-10-26T04:01:34.590Z,72.40
2022-10-26T04:04:01.396Z,72.42
2022-10-26T04:06:28.145Z,72.23
2022-10-26T04:08:59.193Z,72.15
2022-10-26T04:11:31.504Z,71.90
2022-10-26T04:14:00.717Z,72.43
2022-10-26T04:16:31.069Z,72.54
2022-10-26T04:19:02.558Z,72.54
2022-10-26T04:21:33.172Z,72.79
2022-10-26T04:23:59.911Z,72.75
2022-10-26T04:26:29.154Z,72.70
2022-10-26T04:28:55.933Z,72.13
2022-10-26T04:31:24.982Z,71.89
2022-10-26T04:33:51.665Z,72.16
2022-10-26T04:36:18.371Z,71.99
2022-10-26T04:38:49.153Z,72.21
2022-10-26T04:41:16.178Z,72.36
2022-10-26T04:43:43.021Z,71.95
2022-10-26T04:46:16.743Z,72.16
2022-10-26T04:48:43.844Z,73.55
2022-10-26T04:51:10.542Z,73.92
2022-10-26T04:53:37.236Z,73.59
2022-10-26T04:56:09.437Z,73.46
2022-10-26T04:58:36.176Z,73.39
2022-10-26T05:01:03.332Z,73.04
2022-10-26T05:03:30.310Z,72.90
2022-10-26T05:06:00.349Z,72.77
2022-10-26T05:08:32.247Z,72.75
2022-10-26T05:11:01.236Z,73.24
2022-10-26T05:13:30.364Z,72.78
2022-10-26T05:15:59.752Z,72.90
2022-10-26T05:18:26.434Z,72.57
2022-10-26T05:20:53.768Z,72.81
2022-10-26T05:23:24.277Z,72.76
2022-10-26T05:25:55.756Z,72.49
2022-10-26T05:28:27.202Z,72.26
2022-10-26T05:30:53.943Z,72.07
2022-10-26T05:33:20.618Z,71.68
2022-10-26T05:35:47.709Z,71.63
2022-10-26T05:38:16.606Z,71.99
2022-10-26T05:40:51.151Z,72.01
2022-10-26T05:43:24.210Z,71.82
2022-10-26T05:45:51.557Z,71.99
2022-10-26T05:48:18.254Z,71.81
2022-10-26T05:50:49.428Z,71.52
2022-10-26T05:53:16.136Z,71.52
2022-10-26T05:55:43.481Z,71.43
2022-10-26T05:58:15.129Z,71.32
2022-10-26T06:00:49.755Z,71.30
2022-10-26T06:03:50.873Z,71.22
2022-10-26T06:06:17.988Z,70.93
2022-10-26T06:08:44.939Z,71.01
2022-10-26T06:11:16.404Z,71.46
2022-10-26T06:13:43.073Z,71.60
2022-10-26T06:16:21.193Z,71.32
2022-10-26T06:19:11.077Z,71.32
2022-10-26T06:22:16.579Z,71.31
2022-10-26T06:24:43.273Z,71.32
2022-10-26T06:27:40.322Z,71.51
2022-10-26T06:30:12.233Z,71.25
2022-10-26T06:32:40.377Z,71.27
2022-10-26T06:35:30.640Z,71.40
2022-10-26T06:37:59.775Z,71.32
2022-10-26T06:40:26.835Z,71.33
2022-10-26T06:42:56.116Z,71.11
2022-10-26T06:45:23.069Z,70.99
2022-10-26T06:48:08.542Z,71.01
2022-10-26T06:50:42.471Z,70.68
2022-10-26T06:53:19.029Z,70.61
2022-10-26T06:55:47.811Z,70.07
2022-10-26T06:58:23.111Z,70.21
2022-10-26T07:00:51.589Z,70.12
2022-10-26T07:03:20.455Z,70.16
2022-10-26T07:05:47.356Z,69.85
2022-10-26T07:08:14.137Z,69.74
2022-10-26T07:10:43.759Z,69.70
2022-10-26T07:13:10.952Z,69.29
2022-10-26T07:15:38.655Z,68.85
2022-10-26T07:18:06.612Z,68.52
2022-10-26T07:20:38.837Z,68.81
2022-10-26T07:23:11.007Z,68.53
2022-10-26T07:25:42.809Z,68.16
2022-10-26T07:28:13.041Z,66.95
2022-10-26T07:30:40.509Z,67.53
2022-10-26T07:33:12.771Z,67.54
2022-10-26T07:35:39.723Z,67.28
2022-10-26T07:38:09.672Z,66.86
2022-10-26T07:40:38.092Z,66.80
2022-10-26T07:43:05.274Z,66.28
2022-10-26T07:45:32.005Z,66.57
2022-10-26T07:48:03.951Z,66.02
2022-10-26T07:50:30.703Z,66.00
2022-10-26T07:52:59.031Z,65.96
2022-10-26T07:55:28.333Z,65.34
2022-10-26T07:57:58.113Z,65.00
2022-10-26T08:00:30.018Z,64.85
2022-10-26T08:02:57.120Z,64.53
2022-10-26T08:05:23.881Z,63.80
2022-10-26T08:07:50.824Z,64.07
2022-10-26T08:10:20.086Z,63.88
2022-10-26T08:12:55.420Z,63.57
2022-10-26T08:15:22.210Z,63.35
2022-10-26T08:17:49.299Z,63.12
2022-10-26T08:20:16.353Z,63.24
2022-10-26T08:22:43.056Z,62.54
2022-10-26T08:25:13.167Z,63.15
2022-10-26T08:27:41.114Z,62.77
2022-10-26T08:30:13.118Z,62.54
2022-10-26T08:32:48.143Z,62.60
2022-10-26T08:35:15.139Z,63.40
2022-10-26T08:37:50.397Z,63.71
2022-10-26T08:40:25.306Z,63.42
2022-10-26T08:42:58.620Z,64.68
2022-10-26T08:45:36.604Z,64.81
2022-10-26T08:48:06.957Z,64.53
2022-10-26T08:50:40.599Z,64.09
2022-10-26T08:53:15.620Z,63.96
2022-10-26T08:55:45.875Z,63.42
2022-10-26T08:58:17.426Z,63.58
2022-10-26T09:00:47.426Z,64.04
2022-10-26T09:03:17.948Z,63.93
2022-10-26T09:05:55.899Z,63.96
2022-10-26T09:08:40.663Z,63.16
2022-10-26T09:11:33.704Z,62.80
2022-10-26T09:14:11.912Z,62.31
2022-10-26T09:16:47.645Z,62.50
2022-10-26T09:19:32.524Z,62.15
2022-10-26T09:22:22.480Z,61.99
2022-10-26T09:25:05.474Z,61.35
2022-10-26T09:27:42.656Z,61.54
2022-10-26T09:30:19.131Z,60.36
2022-10-26T09:32:53.583Z,61.31
2022-10-26T09:35:26.121Z,60.05
2022-10-26T09:38:01.739Z,60.75
2022-10-26T09:40:36.478Z,60.39
2022-10-26T09:43:18.455Z,59.25
2022-10-26T09:45:47.872Z,59.83
2022-10-26T09:48:32.221Z,59.15
2022-10-26T09:51:04.477Z,58.72
2022-10-26T09:53:36.351Z,59.80
2022-10-26T09:56:08.996Z,62.16
2022-10-26T09:59:02.163Z,63.51
2022-10-26T10:01:36.769Z,63.61
2022-10-26T10:04:26.143Z,63.16
2022-10-26T10:07:16.784Z,60.64
2022-10-26T10:09:45.773Z,60.17
2022-10-26T10:12:23.037Z,58.25
2022-10-26T10:14:57.967Z,57.43
2022-10-26T10:17:27.597Z,58.81
2022-10-26T10:20:12.615Z,58.59
2022-10-26T10:22:53.304Z,58.45
2022-10-26T10:27:54.788Z,59.62
2022-10-26T10:30:27.786Z,60.24
2022-10-26T10:33:11.135Z,61.09
2022-10-26T10:35:51.161Z,61.61
2022-10-26T10:38:20.706Z,61.23
2022-10-26T10:40:52.519Z,61.30
2022-10-26T10:43:22.618Z,61.10
2022-10-26T10:45:57.165Z,60.50
2022-10-26T10:48:28.614Z,61.66
2022-10-26T10:51:04.344Z,61.57
2022-10-26T10:53:37.995Z,61.03
2022-10-26T10:56:29.084Z,61.06
2022-10-26T10:59:01.693Z,60.91
2022-10-26T11:01:36.760Z,60.82
2022-10-26T11:04:45.096Z,60.50
2022-10-26T11:07:15.723Z,60.29
2022-10-26T11:09:46.195Z,60.45
2022-10-26T11:12:18.563Z,60.52
2022-10-26T11:14:52.719Z,60.78
2022-10-26T11:17:24.937Z,60.59
2022-10-26T11:19:56.800Z,60.36
2022-10-26T11:22:35.362Z,60.30
2022-10-26T11:25:29.973Z,60.85
2022-10-26T11:28:05.062Z,61.02
2022-10-26T11:30:34.103Z,60.73
2022-10-26T11:33:02.070Z,60.82
2022-10-26T11:35:44.074Z,60.84
2022-10-26T11:38:27.995Z,60.38
2022-10-26T11:41:20.204Z,60.04
2022-10-26T11:43:53.952Z,59.63
2022-10-26T11:46:28.720Z,59.08
2022-10-26T11:49:16.692Z,58.34
2022-10-26T11:51:49.101Z,58.38
2022-10-26T11:54:32.047Z,57.78
2022-10-26T11:57:01.987Z,58.06
2022-10-26T11:59:33.324Z,58.87
2022-10-26T12:02:08.266Z,59.44
2022-10-26T12:04:41.733Z,59.24
2022-10-26T12:07:16.119Z,58.47
2022-10-26T12:09:47.329Z,58.79
2022-10-26T12:12:42.824Z,59.68
2022-10-26T12:15:40.053Z,59.33
2022-10-26T12:18:43.047Z,58.51
2022-10-26T12:21:13.771Z,58.35
2022-10-26T12:24:01.729Z,57.81
2022-10-26T12:26:34.000Z,57.46
2022-10-26T12:29:03.933Z,56.83
2022-10-26T12:31:36.591Z,55.46
2022-10-26T12:34:13.299Z,54.90
2022-10-26T12:36:49.107Z,54.79
2022-10-26T12:39:35.022Z,54.26
2022-10-26T12:42:04.911Z,54.46
2022-10-26T12:44:33.602Z,53.88
2022-10-26T12:47:01.107Z,53.76
2022-10-26T12:50:01.185Z,52.31
2022-10-26T12:52:34.452Z,51.88
2022-10-26T12:55:15.467Z,50.50
2022-10-26T12:57:59.602Z,52.71
2022-10-26T13:00:29.349Z,53.17
2022-10-26T13:03:14.809Z,52.65
2022-10-26T13:06:02.861Z,52.81
2022-10-26T13:08:48.787Z,53.34
2022-10-26T13:11:38.284Z,53.09
2022-10-26T13:14:06.940Z,54.34
2022-10-26T13:16:36.435Z,54.40
2022-10-26T13:19:05.795Z,54.50
2022-10-26T13:21:46.028Z,55.10
2022-10-26T13:24:14.019Z,55.14
2022-10-26T13:27:05.786Z,54.58
2022-10-26T13:29:33.226Z,54.13
2022-10-26T13:32:00.154Z,54.46
2022-10-26T13:34:32.010Z,54.58
2022-10-26T13:37:24.024Z,54.46
2022-10-26T13:39:55.961Z,54.48
2022-10-26T13:45:31.981Z,55.20
2022-10-26T13:48:06.354Z,56.01
2022-10-26T13:50:52.368Z,56.56
2022-10-26T13:53:45.198Z,56.79
2022-10-26T13:56:38.312Z,56.44
2022-10-26T13:59:05.948Z,57.03
2022-10-26T14:01:35.563Z,56.91
2022-10-26T14:04:18.681Z,56.77
2022-10-26T14:06:51.480Z,57.07
2022-10-26T14:09:23.136Z,57.10
2022-10-26T14:11:51.114Z,57.16
2022-10-26T14:14:22.844Z,57.23
2022-10-26T14:16:56.243Z,57.61
2022-10-26T14:19:41.294Z,57.41
2022-10-26T14:22:08.270Z,57.73
2022-10-26T14:24:47.232Z,57.66
2022-10-26T14:27:18.978Z,58.11
2022-10-26T14:29:49.955Z,57.85
2022-10-26T14:32:32.191Z,58.05
2022-10-26T14:35:01.042Z,57.92
2022-10-26T14:38:06.727Z,58.50
2022-10-26T14:40:38.165Z,58.25
2022-10-26T14:43:05.560Z,58.31
2022-10-26T14:45:48.584Z,58.38
2022-10-26T14:48:36.375Z,58.42
2022-10-26T14:51:14.816Z,58.74
2022-10-26T14:53:49.257Z,58.85
2022-10-26T14:56:33.024Z,59.05
2022-10-26T14:59:10.027Z,59.42
2022-10-26T15:02:00.011Z,59.55
2022-10-26T15:04:34.070Z,60.00
2022-10-26T15:07:23.278Z,60.22
2022-10-26T15:09:51.546Z,60.27
2022-10-26T15:12:19.779Z,60.25
2022-10-26T15:14:49.720Z,60.55
2022-10-26T15:17:27.783Z,61.15
2022-10-26T15:19:57.938Z,60.98
2022-10-26T15:22:31.828Z,61.02
2022-10-26T15:25:04.336Z,61.03
2022-10-26T15:27:33.305Z,60.93
2022-10-26T15:30:22.765Z,60.94
2022-10-26T15:32:49.753Z,60.98
2022-10-26T15:35:19.683Z,61.34
2022-10-26T15:37:47.109Z,61.72
2022-10-26T15:40:14.644Z,62.21
2022-10-26T15:42:42.838Z,62.69
2022-10-26T15:45:26.137Z,62.79
2022-10-26T15:47:53.829Z,62.86
2022-10-26T15:50:23.391Z,62.56
2022-10-26T15:52:56.504Z,62.49
2022-10-26T15:55:23.241Z,62.13
2022-10-26T15:57:53.365Z,62.49
2022-10-26T16:00:22.528Z,62.04
2022-10-26T16:02:51.488Z,62.19
2022-10-26T16:05:18.384Z,62.00
2022-10-26T16:07:49.559Z,62.37
2022-10-26T16:10:26.896Z,62.37
2022-10-26T16:12:55.990Z,62.18
2022-10-26T16:15:25.719Z,62.44
2022-10-26T16:17:55.027Z,62.27
2022-10-26T16:20:23.931Z,62.45
2022-10-26T16:22:52.861Z,62.25
2022-10-26T16:25:25.188Z,62.51
2022-10-26T16:27:53.233Z,62.41
2022-10-26T16:30:25.833Z,62.46
2022-10-26T16:32:57.328Z,62.87
2022-10-26T16:35:26.561Z,62.64
2022-10-26T16:37:53.446Z,62.63
2022-10-26T16:40:20.188Z,62.92
2022-10-26T16:42:49.435Z,62.80
2022-10-26T16:45:18.695Z,63.24
2022-10-26T16:47:48.685Z,63.20
2022-10-26T16:50:21.450Z,62.96
2022-10-26T16:52:56.689Z,63.77
2022-10-26T16:55:30.779Z,63.50
2022-10-26T16:58:00.139Z,63.27
2022-10-26T17:00:29.434Z,63.39
2022-10-26T17:02:56.278Z,63.52
2022-10-26T17:05:26.404Z,63.57
2022-10-26T17:07:53.636Z,63.60
2022-10-26T17:10:20.729Z,63.33
2022-10-26T17:12:47.729Z,63.42
2022-10-26T17:15:17.412Z,63.34
2022-10-26T17:17:46.702Z,63.43
2022-10-26T17:20:14.867Z,63.81
2022-10-26T17:22:46.431Z,63.42
2022-10-26T17:25:13.228Z,64.13
2022-10-26T17:27:49.753Z,63.92
2022-10-26T17:30:16.655Z,64.37
2022-10-26T17:32:45.867Z,64.00
2022-10-26T17:35:13.446Z,64.63
2022-10-26T17:37:41.099Z,64.48
2022-10-26T17:40:08.448Z,64.48
2022-10-26T17:42:35.204Z,64.60
2022-10-26T17:45:02.065Z,64.95
2022-10-26T17:47:28.830Z,65.22
2022-10-26T17:49:55.523Z,64.90
2022-10-26T17:52:24.883Z,64.52
2022-10-26T17:54:56.272Z,64.86
2022-10-26T17:57:29.036Z,64.65
2022-10-26T17:59:58.249Z,65.07
2022-10-26T18:02:25.002Z,65.55
2022-10-26T18:04:54.071Z,65.30
2022-10-26T18:07:20.901Z,65.23
2022-10-26T18:09:47.600Z,65.00
2022-10-26T18:12:17.150Z,65.51
2022-10-26T18:14:44.137Z,65.49
2022-10-26T18:17:10.973Z,65.71
2022-10-26T18:19:39.916Z,65.41
2022-10-26T18:22:06.652Z,65.33
2022-10-26T18:24:36.754Z,65.56
2022-10-26T18:27:09.524Z,65.81
2022-10-26T18:29:39.820Z,65.89
2022-10-26T18:32:07.134Z,65.64
2022-10-26T18:34:36.185Z,65.82
2022-10-26T18:37:07.246Z,66.08
2022-10-26T18:39:34.124Z,66.46
2022-10-26T18:42:05.736Z,66.41
2022-10-26T18:44:32.663Z,66.51
2022-10-26T18:46:59.522Z,66.44
2022-10-26T18:49:26.963Z,67.05
2022-10-26T18:51:53.911Z,66.96
2022-10-26T18:54:28.287Z,67.30
2022-10-26T18:57:02.313Z,67.52
2022-10-26T18:59:29.083Z,67.50
2022-10-26T19:01:55.947Z,67.30
2022-10-26T19:04:22.853Z,67.58
2022-10-26T19:06:51.849Z,67.76
2022-10-26T19:09:21.045Z,67.64
2022-10-26T19:11:47.996Z,67.54
2022-10-26T19:14:14.898Z,67.82
2022-10-26T19:16:46.781Z,67.79
2022-10-26T19:19:15.087Z,67.88
2022-10-26T19:21:44.566Z,68.22
2022-10-26T19:24:14.461Z,68.18
2022-10-26T19:26:43.738Z,68.39
2022-10-26T19:29:16.765Z,68.28
2022-10-26T19:31:47.283Z,68.58
2022-10-26T19:34:42.509Z,68.87
2022-10-26T19:37:15.017Z,69.00
2022-10-26T19:39:44.110Z,69.37
2022-10-26T19:42:15.756Z,69.24
2022-10-26T19:44:42.550Z,69.27
2022-10-26T19:47:09.459Z,69.49
2022-10-26T19:49:36.178Z,69.17
2022-10-26T19:52:03.199Z,69.46
2022-10-26T19:54:30.052Z,69.76
2022-10-26T19:56:57.389Z,69.63
2022-10-26T19:59:26.862Z,69.56
2022-10-26T20:01:57.811Z,69.58
2022-10-26T20:04:25.000Z,69.88
2022-10-26T20:06:54.227Z,69.56
2022-10-26T20:09:23.484Z,69.87
2022-10-26T20:11:52.812Z,69.54
2022-10-26T20:14:19.729Z,69.34
2022-10-26T20:16:49.017Z,69.46
2022-10-26T20:19:15.762Z,69.66
2022-10-26T20:21:44.867Z,69.78
2022-10-26T20:24:14.144Z,70.12
2022-10-26T20:26:40.925Z,70.35
2022-10-26T20:29:10.448Z,70.38
2022-10-26T20:31:37.161Z,70.45
2022-10-26T20:34:10.910Z,70.87
2022-10-26T20:36:37.747Z,70.93
2022-10-26T20:39:09.695Z,71.15
2022-10-26T20:41:48.568Z,71.24
2022-10-26T20:44:22.869Z,71.20
2022-10-26T20:46:49.991Z,71.67
2022-10-26T20:49:18.932Z,71.96
2022-10-26T20:52:19.933Z,71.54
2022-10-26T20:54:49.858Z,72.03
2022-10-26T20:57:28.659Z,71.48
2022-10-26T21:00:03.881Z,71.59
2022-10-26T21:02:31.090Z,71.60
2022-10-26T21:05:00.396Z,71.79
2022-10-26T21:07:29.580Z,71.76
2022-10-26T21:09:56.434Z,71.62
2022-10-26T21:12:25.883Z,71.77
2022-10-26T21:14:52.563Z,71.75
2022-10-26T21:17:19.296Z,71.67
2022-10-26T21:19:48.303Z,71.83
2022-10-26T21:22:15.818Z,71.61
2022-10-26T21:24:44.703Z,71.70
2022-10-26T21:27:13.605Z,71.76
2022-10-26T21:29:40.376Z,71.68
2022-10-26T21:32:07.062Z,71.79
2022-10-26T21:34:38.447Z,71.73
2022-10-26T21:37:05.255Z,71.83
2022-10-26T21:39:31.980Z,71.62
2022-10-26T21:42:01.024Z,72.13
2022-10-26T21:44:43.066Z,72.27
2022-10-26T21:47:12.798Z,72.32
2022-10-26T21:52:11.642Z,72.15
2022-10-26T21:54:38.346Z,72.39
2022-10-26T21:57:05.118Z,72.14
2022-10-26T21:59:36.322Z,72.20
2022-10-26T22:02:05.644Z,72.26
2022-10-26T22:04:34.620Z,72.04
2022-10-26T22:07:03.614Z,71.94
2022-10-26T22:09:30.688Z,71.89
2022-10-26T22:11:59.554Z,71.67
2022-10-26T22:14:26.409Z,72.13
2022-10-26T22:16:53.102Z,72.16
2022-10-26T22:19:19.863Z,72.14
2022-10-26T22:21:46.549Z,72.14
2022-10-26T22:24:15.517Z,72.22
2022-10-26T22:26:42.165Z,72.65
2022-10-26T22:29:09.364Z,72.72
2022-10-26T22:31:39.344Z,72.63
2022-10-26T22:34:10.350Z,72.72
2022-10-26T22:36:37.186Z,72.76
2022-10-26T22:39:04.317Z,72.77
2022-10-26T22:41:31.000Z,72.73
2022-10-26T22:43:57.661Z,73.05
2022-10-26T22:46:28.041Z,73.04
2022-10-26T22:48:59.662Z,73.21
2022-10-26T22:51:33.511Z,73.13
2022-10-26T22:54:05.756Z,72.81
2022-10-26T22:56:37.238Z,73.19
2022-10-26T22:59:05.282Z,73.07
2022-10-26T23:01:35.856Z,73.15
2022-10-26T23:04:02.981Z,73.25
2022-10-26T23:06:31.303Z,73.51
2022-10-26T23:08:58.311Z,73.87
2022-10-26T23:11:27.506Z,73.94
2022-10-26T23:13:58.492Z,73.96
2022-10-26T23:16:25.940Z,74.06
2022-10-26T23:18:55.553Z,74.00
2022-10-26T23:21:23.646Z,74.03
2022-10-26T23:23:50.441Z,74.18
2022-10-26T23:26:19.488Z,74.25
2022-10-26T23:28:46.512Z,74.57
2022-10-26T23:31:17.025Z,74.61
2022-10-26T23:33:46.156Z,74.33
2022-10-26T23:36:15.249Z,74.24
2022-10-26T23:38:42.007Z,74.26
2022-10-26T23:41:15.933Z,74.63
2022-10-26T23:43:42.692Z,74.56
2022-10-26T23:46:11.821Z,74.28
2022-10-26T23:48:38.687Z,74.39
2022-10-26T23:51:10.372Z,74.37
2022-10-26T23:53:36.850Z,74.31
2022-10-26T23:56:03.623Z,74.46
2022-10-26T23:58:32.546Z,74.36
